Time;durP1;ratioP1;P1;durP2;ratioP2;P2;SDS_P1;SDS_P2;PMS_P1;PMS_P2;Temp;Humidity;BMP_temperature;BMP_pressure;BME280_temperature;BME280_humidity;BME280_pressure;Samples;Min_cycle;Max_cycle;Signal;HPM_P1;HPM_P2
2023/07/15 00:00:18;;;;;;;7.30;3.45;;;22.70;13.50;;;;;;5031545;28;20375;-75
2023/07/15 00:02:45;;;;;;;5.78;3.45;;;22.60;13.70;;;;;;5031362;28;20747;-73
2023/07/15 00:05:29;;;;;;;4.55;2.92;;;22.60;13.60;;;;;;5031395;28;20418;-72
2023/07/15 00:07:55;;;;;;;4.65;3.00;;;22.60;13.80;;;;;;5031786;28;20799;-72
2023/07/15 00:10:21;;;;;;;8.37;3.30;;;22.60;13.60;;;;;;5031497;28;20375;-73
2023/07/15 00:12:47;;;;;;;7.80;3.40;;;22.50;13.90;;;;;;5031217;28;20445;-73
2023/07/15 00:15:14;;;;;;;7.07;3.07;;;22.40;14.00;;;;;;5031753;28;20776;-73
2023/07/15 00:17:40;;;;;;;4.15;2.80;;;22.50;14.00;;;;;;5031176;28;20911;-73
2023/07/15 00:20:08;;;;;;;9.05;3.30;;;22.50;14.30;;;;;;5031160;28;20466;-73
2023/07/15 00:22:35;;;;;;;6.60;3.22;;;22.40;14.30;;;;;;5031061;28;20419;-73
2023/07/15 00:25:02;;;;;;;6.40;3.30;;;22.50;14.20;;;;;;5030835;28;20398;-74
2023/07/15 00:27:27;;;;;;;5.20;2.93;;;22.50;14.30;;;;;;5031507;28;20444;-75
2023/07/15 00:29:53;;;;;;;5.03;2.80;;;22.40;14.50;;;;;;5031401;28;20466;-73
2023/07/15 00:32:19;;;;;;;7.00;2.83;;;22.40;14.20;;;;;;5031050;28;20743;-73
2023/07/15 00:34:44;;;;;;;5.97;3.30;;;22.40;14.50;;;;;;5031059;28;20470;-73
2023/07/15 00:37:10;;;;;;;5.00;3.00;;;22.30;14.70;;;;;;5031165;28;20856;-73
2023/07/15 00:39:36;;;;;;;5.97;3.20;;;22.30;14.60;;;;;;5031222;28;20379;-73
2023/07/15 00:42:09;;;;;;;4.23;3.10;;;22.40;14.50;;;;;;5030669;28;20395;-73
2023/07/15 00:44:34;;;;;;;5.70;2.85;;;22.30;14.50;;;;;;4997548;28;20391;-74
2023/07/15 00:47:12;;;;;;;7.10;3.20;;;22.30;14.40;;;;;;5030728;28;20441;-74
2023/07/15 00:49:39;;;;;;;5.28;3.00;;;22.20;14.70;;;;;;5031320;28;20394;-74
2023/07/15 00:52:09;;;;;;;3.83;2.80;;;22.20;14.80;;;;;;5030900;28;20405;-74
2023/07/15 00:54:41;;;;;;;5.78;3.08;;;22.20;14.90;;;;;;5031004;28;20383;-74
2023/07/15 00:57:09;;;;;;;9.18;3.55;;;22.20;15.00;;;;;;5031063;28;20433;-74
2023/07/15 00:59:36;;;;;;;6.50;3.20;;;22.20;15.20;;;;;;5031132;28;20383;-74
2023/07/15 01:02:02;;;;;;;9.05;2.92;;;22.20;15.00;;;;;;5011207;28;20440;-74
2023/07/15 01:04:28;;;;;;;6.70;3.15;;;22.20;14.90;;;;;;5035232;28;20391;-74
2023/07/15 01:06:54;;;;;;;6.63;3.80;;;22.20;15.00;;;;;;5026846;28;20967;-74
2023/07/15 01:09:21;;;;;;;6.10;3.00;;;22.10;15.40;;;;;;5044439;28;20397;-74
2023/07/15 01:11:46;;;;;;;5.72;3.35;;;22.10;15.20;;;;;;5032563;28;20760;-76
2023/07/15 01:14:15;;;;;;;6.10;3.40;;;22.10;15.50;;;;;;5030451;28;20395;-75
2023/07/15 01:16:40;;;;;;;4.47;3.20;;;22.10;15.50;;;;;;5029722;28;20453;-72
2023/07/15 01:19:06;;;;;;;11.00;5.43;;;22.10;15.20;;;;;;5035790;28;20459;-72
2023/07/15 01:21:34;;;;;;;8.93;5.30;;;22.10;15.70;;;;;;5030439;28;20403;-74
2023/07/15 01:24:00;;;;;;;7.47;3.92;;;22.10;15.30;;;;;;5031962;28;20868;-76
2023/07/15 01:26:25;;;;;;;5.47;3.45;;;22.10;15.40;;;;;;5024098;28;20397;-74
2023/07/15 01:28:51;;;;;;;14.00;4.82;;;22.10;15.50;;;;;;5051730;28;20451;-73
2023/07/15 01:31:19;;;;;;;6.20;2.93;;;22.10;15.40;;;;;;5032738;28;20407;-75
2023/07/15 01:33:47;;;;;;;7.47;3.22;;;22.10;15.30;;;;;;5030585;28;20395;-74
2023/07/15 01:36:13;;;;;;;8.38;3.20;;;22.00;15.50;;;;;;5030334;28;20417;-73
2023/07/15 01:38:38;;;;;;;5.20;3.10;;;21.90;15.60;;;;;;5033110;28;20390;-75
2023/07/15 01:41:04;;;;;;;5.25;2.70;;;21.90;15.70;;;;;;5033818;28;20395;-74
2023/07/15 01:43:30;;;;;;;3.73;2.80;;;21.80;16.10;;;;;;5034090;28;20824;-74
2023/07/15 01:45:57;;;;;;;7.40;3.33;;;21.90;16.30;;;;;;5034414;28;20379;-73
2023/07/15 01:48:25;;;;;;;5.68;3.10;;;21.90;15.90;;;;;;5034030;28;20411;-73
2023/07/15 01:50:51;;;;;;;8.23;3.30;;;22.00;15.70;;;;;;5033868;28;20391;-74
2023/07/15 01:53:16;;;;;;;5.00;2.65;;;22.00;15.80;;;;;;5033948;28;20415;-74
2023/07/15 01:55:42;;;;;;;6.85;3.10;;;22.10;15.50;;;;;;5033803;28;20895;-73
2023/07/15 01:58:08;;;;;;;8.20;3.37;;;22.10;15.50;;;;;;5033652;28;20811;-74
2023/07/15 02:00:33;;;;;;;5.00;3.10;;;22.20;15.40;;;;;;5033925;28;20379;-73
2023/07/15 02:02:59;;;;;;;7.80;3.00;;;22.30;15.40;;;;;;5033537;28;20454;-73
2023/07/15 02:05:24;;;;;;;4.10;3.27;;;22.30;15.40;;;;;;5033892;28;20775;-73
2023/07/15 02:07:50;;;;;;;7.63;3.63;;;22.30;15.40;;;;;;5033068;28;20891;-74
2023/07/15 02:10:17;;;;;;;5.67;3.07;;;22.40;15.60;;;;;;5033292;28;20390;-73
2023/07/15 02:12:43;;;;;;;4.28;3.25;;;22.30;15.40;;;;;;5032906;28;20383;-74
2023/07/15 02:15:09;;;;;;;4.32;2.85;;;22.30;15.40;;;;;;5032957;28;20464;-74
2023/07/15 02:17:34;;;;;;;5.10;2.92;;;22.20;15.50;;;;;;5033061;28;20379;-74
2023/07/15 02:20:00;;;;;;;10.90;3.20;;;22.10;15.70;;;;;;5033079;28;20462;-73
2023/07/15 02:22:25;;;;;;;5.13;3.55;;;22.10;15.60;;;;;;5033198;28;20390;-74
2023/07/15 02:24:51;;;;;;;5.30;3.10;;;22.00;15.90;;;;;;5032871;28;20383;-74
2023/07/15 02:27:17;;;;;;;11.33;3.60;;;22.00;15.80;;;;;;5032866;28;20387;-74
2023/07/15 02:29:44;;;;;;;9.45;3.10;;;22.00;16.10;;;;;;5033153;28;20384;-74
2023/07/15 02:32:09;;;;;;;6.65;2.97;;;21.90;16.30;;;;;;5032584;28;20393;-74
2023/07/15 02:34:35;;;;;;;7.70;3.10;;;21.80;16.30;;;;;;5032762;28;20752;-74
2023/07/15 02:37:01;;;;;;;6.13;2.90;;;21.80;16.50;;;;;;5033103;28;20379;-73
2023/07/15 02:39:27;;;;;;;6.03;2.70;;;21.80;16.60;;;;;;5034781;28;20379;-74
2023/07/15 02:41:52;;;;;;;5.60;3.35;;;21.70;16.70;;;;;;5033648;28;20401;-73
2023/07/15 02:44:18;;;;;;;4.43;3.20;;;21.60;17.00;;;;;;5033268;28;20910;-74
2023/07/15 02:46:43;;;;;;;5.00;3.30;;;21.60;17.00;;;;;;5033289;28;20387;-74
2023/07/15 02:49:09;;;;;;;4.63;3.20;;;21.60;17.00;;;;;;5032896;28;20458;-74
2023/07/15 02:51:34;;;;;;;7.27;3.00;;;21.60;16.90;;;;;;5033287;28;20848;-73
2023/07/15 02:54:01;;;;;;;5.17;3.30;;;21.60;17.20;;;;;;5033201;28;20468;-74
2023/07/15 02:56:27;;;;;;;5.85;3.20;;;21.50;17.40;;;;;;5033061;28;20435;-73
2023/07/15 02:58:53;;;;;;;6.93;3.15;;;21.40;17.60;;;;;;5032934;28;20769;-74
2023/07/15 03:01:20;;;;;;;7.63;3.38;;;21.30;17.60;;;;;;5033315;28;20387;-74
2023/07/15 03:03:45;;;;;;;7.00;3.53;;;21.20;17.90;;;;;;5032870;28;20383;-74
2023/07/15 03:06:12;;;;;;;8.10;3.40;;;21.30;17.90;;;;;;5032866;28;20741;-74
2023/07/15 03:08:38;;;;;;;5.00;3.20;;;21.30;17.80;;;;;;5033339;28;20395;-74
2023/07/15 03:11:07;;;;;;;5.28;3.13;;;21.20;18.10;;;;;;5032145;28;20402;-73
2023/07/15 03:13:33;;;;;;;4.77;3.40;;;21.10;18.20;;;;;;5032778;28;20744;-75
2023/07/15 03:15:58;;;;;;;4.37;3.10;;;21.20;18.10;;;;;;5032335;28;20406;-74
2023/07/15 03:18:25;;;;;;;8.23;3.20;;;21.10;18.50;;;;;;5032182;28;20398;-74
2023/07/15 03:20:52;;;;;;;6.65;3.60;;;21.10;18.50;;;;;;5032037;28;20391;-73
2023/07/15 03:23:18;;;;;;;5.03;3.00;;;21.00;18.50;;;;;;5032875;28;20797;-74
2023/07/15 03:25:44;;;;;;;4.53;3.10;;;21.00;18.40;;;;;;5032525;28;20489;-73
2023/07/15 03:28:09;;;;;;;7.07;3.00;;;21.00;18.50;;;;;;5032389;28;20393;-74
2023/07/15 03:30:35;;;;;;;5.88;3.00;;;21.00;18.60;;;;;;5033934;28;20410;-74
2023/07/15 03:33:01;;;;;;;6.03;3.00;;;20.90;18.80;;;;;;5033035;28;20379;-74
2023/07/15 03:35:26;;;;;;;5.50;3.40;;;20.90;18.80;;;;;;5032528;28;20407;-74
2023/07/15 03:37:52;;;;;;;6.93;3.40;;;20.90;18.70;;;;;;5032124;28;20411;-74
2023/07/15 03:40:18;;;;;;;4.63;3.30;;;20.90;18.80;;;;;;5035292;28;20379;-73
2023/07/15 03:42:43;;;;;;;5.30;3.60;;;20.90;18.90;;;;;;5035114;28;20470;-74
2023/07/15 03:45:09;;;;;;;6.77;3.17;;;20.90;18.90;;;;;;5016760;28;20393;-74
2023/07/15 03:47:35;;;;;;;7.75;3.40;;;20.90;19.00;;;;;;5033997;28;20387;-74
2023/07/15 03:50:02;;;;;;;9.00;3.47;;;20.90;18.90;;;;;;5031696;28;20396;-74
2023/07/15 03:52:28;;;;;;;6.60;3.22;;;20.90;19.00;;;;;;5031323;28;20752;-73
2023/07/15 03:54:54;;;;;;;8.83;3.53;;;20.90;19.00;;;;;;5031343;28;20461;-74
2023/07/15 03:57:19;;;;;;;6.53;3.35;;;20.90;19.10;;;;;;5031402;28;20396;-74
2023/07/15 03:59:45;;;;;;;5.73;3.00;;;20.80;19.10;;;;;;5030938;28;20398;-73
2023/07/15 04:02:10;;;;;;;7.50;3.60;;;20.80;19.00;;;;;;5031213;28;20795;-74
2023/07/15 04:04:36;;;;;;;5.35;3.70;;;20.90;19.80;;;;;;5031508;28;20892;-74
2023/07/15 04:07:02;;;;;;;6.40;3.30;;;20.90;19.10;;;;;;5031458;28;20684;-74
2023/07/15 04:09:28;;;;;;;4.97;3.10;;;20.80;19.20;;;;;;5031825;28;20391;-74
2023/07/15 04:11:55;;;;;;;5.85;3.47;;;20.90;19.10;;;;;;5031129;28;20391;-74
2023/07/15 04:14:20;;;;;;;7.70;3.00;;;21.00;18.90;;;;;;5014310;28;20379;-74
2023/07/15 04:16:46;;;;;;;6.60;3.20;;;21.00;19.00;;;;;;5031286;28;20457;-74
2023/07/15 04:19:11;;;;;;;5.60;3.73;;;21.00;18.90;;;;;;5031882;28;20390;-74
2023/07/15 04:21:37;;;;;;;4.80;3.30;;;21.00;19.00;;;;;;5032975;28;20375;-73
2023/07/15 04:24:03;;;;;;;6.50;3.77;;;21.00;19.10;;;;;;5032751;28;20399;-75
2023/07/15 04:26:29;;;;;;;5.03;3.30;;;21.00;19.20;;;;;;5031395;28;20388;-71
2023/07/15 04:28:55;;;;;;;5.10;3.20;;;21.00;19.20;;;;;;5031071;28;20448;-74
2023/07/15 04:31:21;;;;;;;5.17;3.40;;;21.10;19.10;;;;;;5031146;28;20630;-74
2023/07/15 04:33:48;;;;;;;7.88;3.22;;;21.10;19.00;;;;;;5031436;28;20420;-74
2023/07/15 04:36:17;;;;;;;5.10;2.80;;;21.20;18.80;;;;;;5031631;28;20476;-74
2023/07/15 04:38:42;;;;;;;6.45;2.92;;;21.30;18.90;;;;;;5031347;28;20406;-75
2023/07/15 04:41:08;;;;;;;5.65;3.47;;;21.30;18.80;;;;;;5031147;28;20384;-73
2023/07/15 04:43:33;;;;;;;8.63;3.10;;;21.40;18.50;;;;;;5031332;28;20394;-74
2023/07/15 04:46:00;;;;;;;11.05;3.78;;;21.50;18.60;;;;;;5031029;28;20383;-73
2023/07/15 04:48:25;;;;;;;5.40;3.13;;;21.50;18.40;;;;;;5030691;28;20387;-73
2023/07/15 04:50:52;;;;;;;5.22;3.10;;;21.40;18.50;;;;;;5030418;28;20436;-73
2023/07/15 04:53:17;;;;;;;3.60;2.67;;;21.50;18.60;;;;;;5030731;28;20791;-74
2023/07/15 04:55:45;;;;;;;5.80;3.08;;;21.50;19.10;;;;;;5030557;28;20407;-74
2023/07/15 04:58:12;;;;;;;3.95;2.90;;;21.60;18.60;;;;;;5030537;28;20395;-74
2023/07/15 05:00:37;;;;;;;6.65;3.10;;;21.60;18.40;;;;;;5012920;28;20386;-73
2023/07/15 05:03:06;;;;;;;7.40;3.30;;;21.70;18.50;;;;;;5030274;28;20387;-74
2023/07/15 05:05:32;;;;;;;6.82;3.35;;;21.70;18.30;;;;;;5013598;28;20387;-74
2023/07/15 05:08:16;;;;;;;5.88;3.22;;;21.90;18.30;;;;;;5030302;28;20868;-74
2023/07/15 05:10:42;;;;;;;13.73;3.47;;;22.00;17.90;;;;;;5030531;28;20387;-74
2023/07/15 05:13:08;;;;;;;7.20;3.30;;;22.10;17.80;;;;;;5034326;28;20915;-74
2023/07/15 05:15:36;;;;;;;5.10;2.90;;;22.00;17.90;;;;;;5034880;28;20695;-75
2023/07/15 05:18:01;;;;;;;6.57;3.08;;;22.10;17.80;;;;;;5034480;28;20383;-74
2023/07/15 05:20:27;;;;;;;11.50;3.30;;;22.20;17.60;;;;;;5034532;28;20724;-74
2023/07/15 05:22:53;;;;;;;7.43;2.90;;;22.30;17.50;;;;;;5034222;28;20728;-73
2023/07/15 05:25:19;;;;;;;5.70;3.10;;;22.40;17.20;;;;;;5035733;28;20440;-74
2023/07/15 05:27:45;;;;;;;5.40;2.85;;;22.40;17.70;;;;;;5034219;28;20430;-73
2023/07/15 05:30:11;;;;;;;6.35;3.00;;;22.50;17.20;;;;;;5034176;28;20399;-73
2023/07/15 05:32:37;;;;;;;9.00;3.40;;;22.60;17.20;;;;;;5034042;28;20868;-73
2023/07/15 05:35:03;;;;;;;4.80;3.00;;;22.70;16.90;;;;;;5034097;28;20402;-73
2023/07/15 05:37:29;;;;;;;7.18;3.28;;;22.90;16.60;;;;;;5034316;28;20379;-73
2023/07/15 05:39:55;;;;;;;6.20;3.33;;;22.90;16.60;;;;;;5034092;28;20436;-73
2023/07/15 05:42:20;;;;;;;5.90;3.45;;;22.90;16.60;;;;;;5033941;28;20394;-74
2023/07/15 05:44:46;;;;;;;7.00;3.40;;;22.90;16.90;;;;;;5033726;28;20391;-73
2023/07/15 05:47:11;;;;;;;7.78;3.20;;;23.10;16.40;;;;;;5033644;28;20394;-73
2023/07/15 05:49:37;;;;;;;5.60;3.03;;;23.10;16.30;;;;;;5033832;28;20375;-72
2023/07/15 05:52:03;;;;;;;5.68;3.10;;;23.20;16.20;;;;;;5034083;28;20414;-73
2023/07/15 05:54:28;;;;;;;8.70;3.50;;;23.30;16.10;;;;;;5034036;28;20919;-72
2023/07/15 05:56:54;;;;;;;7.37;3.40;;;23.30;15.90;;;;;;5033529;28;20914;-72
2023/07/15 05:59:21;;;;;;;5.90;2.70;;;23.50;15.50;;;;;;5034380;28;20389;-73
2023/07/15 06:01:47;;;;;;;6.03;3.20;;;23.70;15.40;;;;;;5036689;28;20740;-74
2023/07/15 06:04:14;;;;;;;6.70;3.20;;;23.70;15.20;;;;;;5036437;28;20383;-75
2023/07/15 06:06:39;;;;;;;7.07;2.90;;;23.90;15.00;;;;;;5036947;28;20394;-76
2023/07/15 06:09:05;;;;;;;7.38;3.08;;;24.00;14.90;;;;;;5036806;28;20399;-73
2023/07/15 06:11:30;;;;;;;6.30;3.00;;;24.00;14.60;;;;;;5036748;28;20803;-74
2023/07/15 06:13:57;;;;;;;7.10;2.80;;;24.10;14.70;;;;;;5036120;28;20771;-73
2023/07/15 06:16:23;;;;;;;4.07;2.83;;;24.00;14.70;;;;;;5035690;28;20453;-73
2023/07/15 06:18:49;;;;;;;3.67;2.60;;;24.20;14.40;;;;;;5035364;28;20783;-74
2023/07/15 06:21:14;;;;;;;10.53;2.97;;;24.40;14.30;;;;;;5034444;28;20796;-74
2023/07/15 06:23:40;;;;;;;4.10;2.77;;;24.60;14.10;;;;;;5033065;28;20420;-73
2023/07/15 06:26:05;;;;;;;5.93;3.40;;;24.70;13.90;;;;;;5033399;28;20454;-74
2023/07/15 06:28:31;;;;;;;7.73;2.90;;;24.80;13.90;;;;;;5033930;28;20394;-74
2023/07/15 06:31:03;;;;;;;4.07;2.53;;;24.90;13.40;;;;;;5033494;28;20939;-74
2023/07/15 06:33:29;;;;;;;6.30;3.20;;;25.00;13.30;;;;;;5033446;28;20390;-74
2023/07/15 06:35:54;;;;;;;8.03;2.80;;;25.20;13.10;;;;;;5035344;28;20403;-74
2023/07/15 06:38:20;;;;;;;3.70;2.50;;;25.30;12.90;;;;;;5035376;28;20391;-73
2023/07/15 06:40:46;;;;;;;8.93;3.00;;;25.40;12.70;;;;;;5036169;28;20414;-74
2023/07/15 06:43:11;;;;;;;7.87;3.07;;;25.50;12.70;;;;;;5036210;28;20390;-75
2023/07/15 06:45:37;;;;;;;5.97;2.80;;;25.50;12.60;;;;;;5037193;28;20444;-75
2023/07/15 06:48:03;;;;;;;7.97;2.83;;;25.60;12.70;;;;;;5035845;28;20391;-74
2023/07/15 06:50:29;;;;;;;5.03;2.63;;;25.70;12.00;;;;;;5035526;28;20405;-73
2023/07/15 06:52:54;;;;;;;5.05;2.30;;;25.90;12.00;;;;;;5017793;28;20395;-74
2023/07/15 06:55:20;;;;;;;7.33;2.60;;;26.00;12.00;;;;;;5036446;28;20987;-74
2023/07/15 06:57:47;;;;;;;4.07;2.75;;;26.10;12.20;;;;;;5035831;28;20491;-75
2023/07/15 07:00:13;;;;;;;9.43;2.90;;;26.00;12.10;;;;;;5037344;28;20383;-73
2023/07/15 07:02:38;;;;;;;4.20;2.90;;;26.30;11.50;;;;;;5036455;28;20458;-73
2023/07/15 07:05:04;;;;;;;5.90;2.92;;;26.70;10.80;;;;;;5035533;28;20480;-73
2023/07/15 07:07:30;;;;;;;5.40;3.20;;;27.10;10.50;;;;;;5035013;28;20418;-75
2023/07/15 07:09:55;;;;;;;4.60;2.90;;;27.40;10.20;;;;;;5034867;28;20482;-75
2023/07/15 07:12:22;;;;;;;9.33;2.90;;;27.30;10.40;;;;;;5034645;28;20744;-73
2023/07/15 07:14:48;;;;;;;4.25;2.50;;;27.50;9.30;;;;;;5034771;28;20389;-74
2023/07/15 07:17:13;;;;;;;5.70;2.70;;;27.70;8.90;;;;;;5034728;28;20447;-74
2023/07/15 07:19:39;;;;;;;4.18;2.65;;;27.70;8.80;;;;;;5034618;28;20850;-74
2023/07/15 07:22:05;;;;;;;4.50;2.40;;;27.70;8.60;;;;;;5035924;28;20383;-75
2023/07/15 07:24:30;;;;;;;6.03;3.10;;;27.50;9.00;;;;;;5035263;28;20852;-73
2023/07/15 07:26:57;;;;;;;4.33;2.87;;;27.30;9.60;;;;;;5033715;28;20545;-74
2023/07/15 07:29:23;;;;;;;7.32;2.85;;;27.00;10.20;;;;;;5034473;28;20474;-74
2023/07/15 07:31:49;;;;;;;9.70;2.50;;;27.10;10.20;;;;;;5034550;28;20418;-75
2023/07/15 07:34:15;;;;;;;5.03;2.40;;;27.00;10.40;;;;;;5033614;28;20383;-74
2023/07/15 07:36:40;;;;;;;5.93;2.70;;;27.30;9.90;;;;;;5033029;28;20411;-76
2023/07/15 07:39:07;;;;;;;5.23;2.67;;;27.30;10.00;;;;;;5033214;28;20395;-73
2023/07/15 07:41:32;;;;;;;4.13;2.60;;;27.30;9.90;;;;;;5032979;28;20555;-73
2023/07/15 07:43:58;;;;;;;6.57;3.22;;;27.30;10.20;;;;;;5032934;28;20422;-74
2023/07/15 07:46:23;;;;;;;6.93;2.80;;;27.40;10.10;;;;;;5033256;28;20387;-75
2023/07/15 07:48:49;;;;;;;5.10;2.80;;;27.50;9.90;;;;;;5034651;28;20457;-76
2023/07/15 07:51:14;;;;;;;7.32;3.03;;;27.50;9.90;;;;;;5032735;28;20398;-75
2023/07/15 07:53:40;;;;;;;5.20;2.93;;;27.60;9.70;;;;;;5032991;28;20400;-75
2023/07/15 07:56:05;;;;;;;11.32;2.80;;;27.70;9.50;;;;;;5032239;28;20422;-75
2023/07/15 07:58:31;;;;;;;4.10;2.60;;;27.80;9.20;;;;;;5032032;28;20394;-73
2023/07/15 08:00:57;;;;;;;4.20;2.90;;;27.60;9.20;;;;;;5031297;28;20474;-73
2023/07/15 08:03:22;;;;;;;4.78;2.20;;;27.40;9.40;;;;;;5031380;28;20872;-73
2023/07/15 08:05:48;;;;;;;7.23;2.90;;;27.10;10.20;;;;;;5031217;28;20394;-74
2023/07/15 08:08:14;;;;;;;7.32;2.80;;;27.00;10.40;;;;;;5031054;28;20410;-75
2023/07/15 08:10:41;;;;;;;4.60;2.60;;;27.30;10.00;;;;;;5032542;28;20698;-73
2023/07/15 08:13:07;;;;;;;2.60;2.20;;;27.40;10.00;;;;;;5031096;28;20821;-75
2023/07/15 08:15:36;;;;;;;5.80;2.30;;;27.80;9.40;;;;;;5013135;28;20430;-74
2023/07/15 08:18:03;;;;;;;3.58;2.58;;;28.00;9.40;;;;;;5030983;28;20379;-76
2023/07/15 08:20:29;;;;;;;7.28;2.80;;;28.20;9.20;;;;;;5031068;28;20414;-74
2023/07/15 08:22:55;;;;;;;4.30;2.58;;;28.20;9.40;;;;;;5030855;28;20902;-74
2023/07/15 08:25:21;;;;;;;5.28;2.30;;;28.20;9.30;;;;;;5030945;28;20509;-72
2023/07/15 08:27:46;;;;;;;6.77;2.70;;;28.30;9.10;;;;;;5030927;28;20383;-74
2023/07/15 08:30:12;;;;;;;5.90;2.60;;;28.30;9.60;;;;;;5030976;28;20423;-73
2023/07/15 08:32:38;;;;;;;4.63;2.50;;;28.30;9.60;;;;;;5030669;28;20394;-73
2023/07/15 08:35:04;;;;;;;5.50;2.50;;;28.20;9.80;;;;;;5030501;28;20399;-73
2023/07/15 08:37:30;;;;;;;7.93;2.57;;;28.00;10.20;;;;;;5030798;28;20764;-74
2023/07/15 08:39:55;;;;;;;3.45;2.40;;;27.80;10.40;;;;;;5030737;28;20447;-74
2023/07/15 08:42:23;;;;;;;5.10;2.60;;;27.90;10.60;;;;;;5012883;28;20428;-73
2023/07/15 08:44:52;;;;;;;5.60;2.70;;;27.60;10.80;;;;;;5012863;28;20387;-74
2023/07/15 08:47:22;;;;;;;8.75;2.90;;;27.30;11.70;;;;;;5030119;28;20815;-73
2023/07/15 08:49:49;;;;;;;3.88;2.53;;;27.10;11.80;;;;;;5030498;28;20481;-73
2023/07/15 08:52:21;;;;;;;7.30;2.70;;;26.90;12.10;;;;;;5030498;28;20383;-74
2023/07/15 08:54:51;;;;;;;6.80;2.80;;;26.70;12.90;;;;;;5030728;28;20448;-74
2023/07/15 08:57:21;;;;;;;7.22;2.60;;;26.30;14.20;;;;;;5030698;28;20455;-74
2023/07/15 08:59:55;;;;;;;9.80;2.40;;;26.30;15.10;;;;;;5030651;28;20410;-74
2023/07/15 09:02:21;;;;;;;5.78;2.25;;;26.10;16.70;;;;;;5030234;28;20387;-74
2023/07/15 09:04:46;;;;;;;5.60;2.70;;;25.80;17.30;;;;;;5030441;28;20387;-74
2023/07/15 09:07:12;;;;;;;5.53;2.90;;;25.40;20.00;;;;;;5031092;28;20443;-74
2023/07/15 09:09:38;;;;;;;8.27;3.00;;;25.00;24.30;;;;;;5031833;28;20740;-73
2023/07/15 09:12:07;;;;;;;9.02;3.53;;;24.40;30.60;;;;;;5032166;28;20386;-74
2023/07/15 09:14:46;;;;;;;5.60;2.97;;;23.60;37.10;;;;;;5032723;28;20469;-74
2023/07/15 09:17:21;;;;;;;4.40;2.90;;;23.00;40.30;;;;;;5032954;28;20880;-75
2023/07/15 09:19:48;;;;;;;10.07;3.00;;;22.70;44.00;;;;;;5032618;28;20394;-74
2023/07/15 09:22:14;;;;;;;4.30;3.40;;;22.40;47.10;;;;;;5015409;28;20446;-74
2023/07/15 09:24:40;;;;;;;8.10;3.20;;;22.30;50.80;;;;;;5033249;28;20920;-75
2023/07/15 09:27:07;;;;;;;5.05;3.10;;;22.20;53.40;;;;;;5032113;28;20451;-74
2023/07/15 09:29:33;;;;;;;5.43;3.15;;;22.10;53.10;;;;;;5035451;28;20387;-73
2023/07/15 09:31:59;;;;;;;5.20;3.60;;;22.00;55.50;;;;;;5032163;28;20787;-75
2023/07/15 09:34:25;;;;;;;6.05;3.08;;;22.00;57.20;;;;;;5032451;28;20379;-74
2023/07/15 09:36:52;;;;;;;6.10;3.70;;;22.00;57.70;;;;;;5032733;28;20411;-74
2023/07/15 09:39:19;;;;;;;9.23;3.70;;;21.90;58.10;;;;;;5033185;28;20391;-75
2023/07/15 09:42:01;;;;;;;7.65;4.20;;;22.00;58.60;;;;;;5031604;28;20379;-74
2023/07/15 09:44:43;;;;;;;6.18;4.00;;;21.90;60.80;;;;;;5032062;28;20387;-73
2023/07/15 09:47:08;;;;;;;7.70;4.93;;;22.00;62.90;;;;;;5031889;28;20406;-74
2023/07/15 09:49:34;;;;;;;5.70;4.50;;;21.70;66.20;;;;;;5031444;28;20425;-74
2023/07/15 09:52:03;;;;;;;6.10;3.90;;;21.80;64.80;;;;;;5030367;28;20461;-75
2023/07/15 09:54:31;;;;;;;10.45;6.80;;;21.60;66.70;;;;;;5030033;28;20389;-74
2023/07/15 09:57:00;;;;;;;10.45;4.88;;;21.70;66.10;;;;;;5031681;28;20415;-74
2023/07/15 09:59:30;;;;;;;6.60;4.60;;;21.70;65.40;;;;;;5033085;28;20422;-74
2023/07/15 10:02:27;;;;;;;6.80;4.63;;;21.80;66.50;;;;;;5034441;28;20371;-73
2023/07/15 10:05:04;;;;;;;5.97;4.60;;;21.70;66.80;;;;;;5034098;28;20466;-74
2023/07/15 10:07:32;;;;;;;8.32;4.95;;;21.90;65.10;;;;;;5033713;28;20391;-76
2023/07/15 10:09:59;;;;;;;8.25;4.70;;;21.90;64.10;;;;;;5034174;28;20418;-74
2023/07/15 10:12:29;;;;;;;8.98;4.55;;;21.90;64.80;;;;;;5034304;28;20397;-75
2023/07/15 10:14:56;;;;;;;7.03;5.20;;;22.00;63.70;;;;;;5033735;28;20411;-75
2023/07/15 10:17:21;;;;;;;9.40;4.80;;;22.10;63.70;;;;;;5033585;28;20449;-73
2023/07/15 10:19:52;;;;;;;7.47;4.68;;;22.10;64.60;;;;;;5033252;28;20383;-75
2023/07/15 10:22:20;;;;;;;9.85;5.07;;;22.00;62.10;;;;;;5033271;28;20387;-75
2023/07/15 10:24:54;;;;;;;9.80;5.27;;;22.00;61.60;;;;;;5033366;28;20390;-74
2023/07/15 10:27:20;;;;;;;9.95;5.20;;;22.20;61.80;;;;;;5032812;28;20394;-75
2023/07/15 10:29:45;;;;;;;8.98;5.18;;;22.20;62.60;;;;;;5033480;28;20379;-76
2023/07/15 10:32:14;;;;;;;10.67;5.93;;;22.20;63.20;;;;;;5033286;28;20390;-78
2023/07/15 10:34:41;;;;;;;11.52;5.80;;;22.60;60.10;;;;;;5033588;28;20379;-74
2023/07/15 10:37:10;;;;;;;9.88;5.22;;;22.90;59.00;;;;;;5032684;28;20410;-74
2023/07/15 10:39:37;;;;;;;8.70;5.10;;;23.30;56.00;;;;;;5033111;28;20387;-73
2023/07/15 10:42:12;;;;;;;8.35;4.70;;;23.80;54.30;;;;;;5033084;28;20375;-74
2023/07/15 10:44:40;;;;;;;10.60;5.18;;;24.40;51.80;;;;;;5033048;28;20398;-74
2023/07/15 10:47:07;;;;;;;7.45;4.60;;;24.50;47.50;;;;;;5033211;28;20397;-74
2023/07/15 10:49:33;;;;;;;9.18;4.90;;;25.00;42.80;;;;;;5033481;28;20410;-75
2023/07/15 10:52:00;;;;;;;9.25;4.82;;;25.10;42.10;;;;;;5032798;28;20387;-74
2023/07/15 10:54:27;;;;;;;6.68;4.25;;;24.70;45.80;;;;;;5033629;28;20760;-76
2023/07/15 10:56:54;;;;;;;8.45;5.30;;;24.50;44.80;;;;;;5032910;28;20896;-75
2023/07/15 10:59:41;;;;;;;8.50;4.90;;;24.60;45.90;;;;;;5032787;28;20494;-74
2023/07/15 11:02:07;;;;;;;8.27;4.80;;;24.30;48.10;;;;;;5032372;28;20390;-74
2023/07/15 11:04:35;;;;;;;6.50;4.20;;;24.30;50.10;;;;;;5032682;28;20391;-74
2023/07/15 11:07:06;;;;;;;9.00;3.88;;;24.70;44.60;;;;;;5032072;28;20399;-73
2023/07/15 11:09:32;;;;;;;8.00;4.13;;;24.60;44.60;;;;;;5032060;28;20387;-74
2023/07/15 11:11:58;;;;;;;6.60;4.40;;;24.40;47.70;;;;;;5031932;28;20756;-74
2023/07/15 11:14:28;;;;;;;6.63;4.13;;;24.60;44.20;;;;;;5032903;28;20394;-73
2023/07/15 11:16:56;;;;;;;4.80;4.30;;;24.80;45.70;;;;;;5032176;28;20489;-74
2023/07/15 11:19:23;;;;;;;8.68;4.65;;;25.10;41.10;;;;;;5032490;28;20513;-74
2023/07/15 11:21:51;;;;;;;6.85;4.78;;;25.20;41.10;;;;;;5032406;28;20505;-74
2023/07/15 11:24:17;;;;;;;9.73;5.07;;;24.90;41.80;;;;;;5032084;28;20418;-74
2023/07/15 11:26:44;;;;;;;9.63;4.90;;;24.60;44.20;;;;;;5032676;28;20442;-75
2023/07/15 11:29:28;;;;;;;8.18;4.60;;;24.70;40.70;;;;;;5032212;28;20764;-74
2023/07/15 11:31:55;;;;;;;6.15;4.20;;;23.70;46.40;;;;;;5031924;28;20392;-74
2023/07/15 11:34:23;;;;;;;8.70;4.35;;;24.10;46.80;;;;;;5032973;28;20399;-74
2023/07/15 11:36:51;;;;;;;8.30;4.30;;;24.40;44.70;;;;;;5032945;28;20411;-74
2023/07/15 11:39:17;;;;;;;6.03;3.93;;;24.80;42.40;;;;;;5032132;28;20383;-74
2023/07/15 11:41:44;;;;;;;5.00;4.00;;;25.40;38.50;;;;;;5031943;28;20437;-74
2023/07/15 11:44:15;;;;;;;5.80;3.97;;;25.80;37.80;;;;;;5031806;28;20387;-73
2023/07/15 11:46:43;;;;;;;5.45;3.88;;;25.60;37.50;;;;;;5013381;28;20401;-75
2023/07/15 11:49:09;;;;;;;6.38;4.05;;;25.60;36.50;;;;;;5031989;28;20383;-75
2023/07/15 11:51:36;;;;;;;3.70;3.40;;;25.40;36.80;;;;;;5031456;28;20402;-74
2023/07/15 11:54:08;;;;;;;6.13;3.70;;;25.90;36.60;;;;;;5031769;28;20410;-73
2023/07/15 11:56:35;;;;;;;4.45;3.70;;;26.00;34.70;;;;;;5031428;28;20399;-73
2023/07/15 11:59:02;;;;;;;11.68;3.80;;;25.70;34.20;;;;;;5031668;28;20375;-73
2023/07/15 12:01:28;;;;;;;7.20;4.50;;;26.00;34.50;;;;;;5031557;28;20406;-73
2023/07/15 12:03:54;;;;;;;3.95;3.55;;;26.30;33.00;;;;;;5031671;28;20892;-75
2023/07/15 12:06:27;;;;;;;7.90;3.80;;;26.50;31.90;;;;;;5031523;28;20395;-75
2023/07/15 12:09:07;;;;;;;5.35;3.90;;;26.60;31.10;;;;;;5031381;28;20463;-73
2023/07/15 12:11:33;;;;;;;5.80;4.10;;;26.20;33.00;;;;;;5031212;28;20398;-74
2023/07/15 12:14:01;;;;;;;5.72;3.95;;;26.20;32.90;;;;;;5031233;28;20391;-73
2023/07/15 12:16:27;;;;;;;8.35;3.60;;;26.50;31.40;;;;;;5032580;28;20904;-74
2023/07/15 12:18:53;;;;;;;9.45;4.22;;;26.20;32.50;;;;;;5032651;28;20390;-73
2023/07/15 12:21:18;;;;;;;4.50;4.00;;;26.00;33.60;;;;;;5032224;28;20452;-74
2023/07/15 12:23:44;;;;;;;6.63;4.10;;;25.60;34.90;;;;;;5031705;28;20379;-75
2023/07/15 12:26:10;;;;;;;9.07;4.13;;;25.00;36.50;;;;;;5031745;28;20498;-74
2023/07/15 12:28:35;;;;;;;5.83;4.10;;;25.10;36.50;;;;;;5031428;28;20391;-74
2023/07/15 12:31:01;;;;;;;6.53;4.40;;;24.90;37.70;;;;;;5031309;28;20864;-74
2023/07/15 12:33:27;;;;;;;10.00;4.30;;;25.00;37.20;;;;;;5030964;28;20387;-74
2023/07/15 12:35:54;;;;;;;7.18;4.40;;;25.10;36.30;;;;;;5030795;28;20973;-73
2023/07/15 12:38:20;;;;;;;6.73;4.60;;;25.10;36.80;;;;;;5030906;28;20375;-74
2023/07/15 12:40:46;;;;;;;8.18;6.95;;;25.40;35.00;;;;;;5030563;28;20379;-74
2023/07/15 12:43:12;;;;;;;8.30;4.60;;;25.40;35.70;;;;;;5030488;28;20395;-74
2023/07/15 12:45:38;;;;;;;10.85;5.13;;;25.30;35.50;;;;;;5031442;28;20440;-73